EWG75A EDDH-GCTS
Flight info
| Callsign | EWG75A |
|---|---|
| Flight time | N/A |
| Altitude | 32000 |
| Route | WSN5G/33 WSN N125 SILQI N872 PAM/N0447F310 N872 NIK/N0448F330 N872 CIV/N0447F320 DCT MEDIL/N0447F330 DCT KOVIN DCT NIDUV DCT KIHVI UN872 ERIGA UZ218 FUJTI DCT BAKUP DCT BATAX DCT BEXAL/N0449F350 UN866 KONBA |
| Aircraft | A321/M-SDE3FGHIRWY/LB1 |
Departure
| Time | 2026-04-25 08:26 |
|---|---|
| Airport | Hamburg Helmut Schmidt Airport (EDDH) |
Arrival
| Time | N/A |
|---|---|
| Airport | Tenerife Sur Airport (GCTS) |
| Time | Latitude | Longitude | Altitude | Speed | Heading |
|---|---|---|---|---|---|
| 2026-04-25 07:45 | 53.63169 | 10.00360 | 51 ft | 0 kts | 87° |
| 2026-04-25 08:17 | 53.63168 | 10.00335 | 50 ft | 4 kts | 89° |
| 2026-04-25 08:17 | 53.63169 | 10.00290 | 50 ft | 4 kts | 95° |
| 2026-04-25 08:17 | 53.63172 | 10.00245 | 46 ft | 4 kts | 103° |
| 2026-04-25 08:17 | 53.63181 | 10.00203 | 47 ft | 4 kts | 126° |
| 2026-04-25 08:18 | 53.63195 | 10.00183 | 49 ft | 1 kts | 176° |
| 2026-04-25 08:18 | 53.63196 | 10.00183 | 49 ft | 0 kts | 176° |
| 2026-04-25 08:22 | 53.63195 | 10.00183 | 49 ft | 0 kts | 176° |
| 2026-04-25 08:22 | 53.63189 | 10.00184 | 48 ft | 1 kts | 176° |
| 2026-04-25 08:22 | 53.63178 | 10.00185 | 50 ft | 2 kts | 176° |
| 2026-04-25 08:22 | 53.63161 | 10.00187 | 47 ft | 3 kts | 176° |
| 2026-04-25 08:23 | 53.63138 | 10.00190 | 50 ft | 4 kts | 176° |
| 2026-04-25 08:23 | 53.63111 | 10.00193 | 50 ft | 4 kts | 176° |
| 2026-04-25 08:23 | 53.63081 | 10.00186 | 50 ft | 5 kts | 196° |
| 2026-04-25 08:23 | 53.63037 | 10.00148 | 50 ft | 11 kts | 211° |
| 2026-04-25 08:24 | 53.62958 | 10.00064 | 50 ft | 13 kts | 214° |
| 2026-04-25 08:24 | 53.62906 | 9.99945 | 50 ft | 13 kts | 244° |
| 2026-04-25 08:24 | 53.62874 | 9.99810 | 49 ft | 13 kts | 255° |
| 2026-04-25 08:24 | 53.62902 | 9.99719 | 50 ft | 0 kts | 325° |
| 2026-04-25 08:25 | 53.62911 | 9.99710 | 50 ft | 8 kts | 327° |
| 2026-04-25 08:25 | 53.63124 | 9.99523 | 50 ft | 68 kts | 332° |
| 2026-04-25 08:25 | 53.63732 | 9.98995 | 47 ft | 127 kts | 333° |
| 2026-04-25 08:26 | 53.64670 | 9.98180 | 75 ft | 172 kts | 327° |
| 2026-04-25 08:26 | 53.65691 | 9.97331 | 979 ft | 157 kts | 330° |
| 2026-04-25 08:26 | 53.66656 | 9.96512 | 1647 ft | 159 kts | 329° |
| 2026-04-25 08:26 | 53.67709 | 9.95593 | 1849 ft | 179 kts | 328° |
| 2026-04-25 08:27 | 53.68856 | 9.94595 | 2140 ft | 193 kts | 329° |
| 2026-04-25 08:27 | 53.70066 | 9.93571 | 2593 ft | 197 kts | 330° |
| 2026-04-25 08:27 | 53.71252 | 9.92471 | 3256 ft | 192 kts | 319° |
| 2026-04-25 08:27 | 53.71879 | 9.90516 | 3664 ft | 203 kts | 279° |
| 2026-04-25 08:28 | 53.71673 | 9.87977 | 3706 ft | 236 kts | 259° |
| 2026-04-25 08:28 | 53.71104 | 9.85283 | 4136 ft | 248 kts | 254° |
| 2026-04-25 08:28 | 53.70441 | 9.82567 | 4750 ft | 252 kts | 253° |
| 2026-04-25 08:28 | 53.69776 | 9.79816 | 5374 ft | 254 kts | 254° |
| 2026-04-25 08:29 | 53.69135 | 9.77023 | 5990 ft | 256 kts | 255° |
| 2026-04-25 08:29 | 53.68520 | 9.74197 | 6594 ft | 258 kts | 256° |
| 2026-04-25 08:29 | 53.67924 | 9.71337 | 7205 ft | 259 kts | 257° |
| 2026-04-25 08:29 | 53.67341 | 9.68462 | 7794 ft | 260 kts | 257° |
| 2026-04-25 08:30 | 53.66764 | 9.65564 | 8378 ft | 261 kts | 257° |
| 2026-04-25 08:30 | 53.66187 | 9.62650 | 8985 ft | 263 kts | 257° |
| 2026-04-25 08:30 | 53.65606 | 9.59721 | 9575 ft | 264 kts | 257° |
| 2026-04-25 08:30 | 53.64806 | 9.56884 | 10126 ft | 274 kts | 243° |
| 2026-04-25 08:31 | 53.63676 | 9.54208 | 10373 ft | 289 kts | 240° |
| 2026-04-25 08:31 | 53.62465 | 9.51370 | 10503 ft | 306 kts | 240° |
| 2026-04-25 08:31 | 53.61187 | 9.48381 | 10603 ft | 322 kts | 239° |
| 2026-04-25 08:31 | 53.59848 | 9.45258 | 10763 ft | 336 kts | 239° |
| 2026-04-25 08:32 | 53.58463 | 9.42047 | 11174 ft | 340 kts | 239° |
| 2026-04-25 08:32 | 53.57064 | 9.38817 | 11690 ft | 342 kts | 238° |
| 2026-04-25 08:32 | 53.55658 | 9.35576 | 12184 ft | 344 kts | 238° |
| 2026-04-25 08:32 | 53.54243 | 9.32311 | 12687 ft | 347 kts | 238° |
| 2026-04-25 08:33 | 53.52821 | 9.29023 | 13196 ft | 349 kts | 238° |
| 2026-04-25 08:33 | 53.51393 | 9.25720 | 13700 ft | 350 kts | 238° |
| 2026-04-25 08:33 | 53.49955 | 9.22396 | 14168 ft | 352 kts | 238° |
| 2026-04-25 08:33 | 53.48509 | 9.19053 | 14604 ft | 355 kts | 238° |
| 2026-04-25 08:34 | 53.47054 | 9.15694 | 15029 ft | 357 kts | 238° |
| 2026-04-25 08:34 | 53.45585 | 9.12314 | 15450 ft | 360 kts | 238° |
| 2026-04-25 08:34 | 53.44105 | 9.08918 | 15874 ft | 362 kts | 238° |
| 2026-04-25 08:34 | 53.42617 | 9.05502 | 16295 ft | 364 kts | 239° |
| 2026-04-25 08:35 | 53.41135 | 9.02105 | 16716 ft | 367 kts | 239° |
| 2026-04-25 08:35 | 53.39624 | 8.98649 | 17093 ft | 370 kts | 238° |
| 2026-04-25 08:35 | 53.38094 | 8.95161 | 17467 ft | 373 kts | 238° |
| 2026-04-25 08:35 | 53.36552 | 8.91647 | 17860 ft | 375 kts | 238° |
| 2026-04-25 08:36 | 53.35069 | 8.88048 | 18237 ft | 375 kts | 244° |
| 2026-04-25 08:36 | 53.33965 | 8.84069 | 18591 ft | 372 kts | 254° |
| 2026-04-25 08:36 | 53.33093 | 8.80041 | 18913 ft | 374 kts | 253° |
| 2026-04-25 08:36 | 53.32194 | 8.75945 | 19245 ft | 376 kts | 253° |
| 2026-04-25 08:37 | 53.31282 | 8.71835 | 19546 ft | 379 kts | 253° |
| 2026-04-25 08:37 | 53.30359 | 8.67695 | 19874 ft | 381 kts | 253° |
| 2026-04-25 08:37 | 53.29431 | 8.63530 | 20206 ft | 383 kts | 253° |
| 2026-04-25 08:37 | 53.28506 | 8.59345 | 20535 ft | 385 kts | 253° |
| 2026-04-25 08:38 | 53.27583 | 8.55137 | 20862 ft | 387 kts | 253° |
| 2026-04-25 08:38 | 53.26659 | 8.50920 | 21182 ft | 388 kts | 253° |
| 2026-04-25 08:38 | 53.25758 | 8.46657 | 21501 ft | 390 kts | 255° |
| 2026-04-25 08:38 | 53.24925 | 8.42348 | 21821 ft | 391 kts | 256° |
| 2026-04-25 08:39 | 53.24128 | 8.37997 | 22142 ft | 393 kts | 256° |
| 2026-04-25 08:39 | 53.23336 | 8.33623 | 22456 ft | 394 kts | 256° |
| 2026-04-25 08:39 | 53.22535 | 8.29232 | 22772 ft | 396 kts | 256° |
| 2026-04-25 08:39 | 53.21715 | 8.24828 | 23076 ft | 398 kts | 256° |
| 2026-04-25 08:40 | 53.20879 | 8.20420 | 23379 ft | 400 kts | 256° |
| 2026-04-25 08:40 | 53.20030 | 8.15985 | 23656 ft | 402 kts | 256° |
| 2026-04-25 08:40 | 53.19176 | 8.11529 | 23919 ft | 404 kts | 256° |
| 2026-04-25 08:40 | 53.18323 | 8.07054 | 24174 ft | 406 kts | 256° |
| 2026-04-25 08:41 | 53.17476 | 8.02561 | 24438 ft | 407 kts | 256° |
| 2026-04-25 08:41 | 53.16630 | 7.98048 | 24688 ft | 408 kts | 256° |
| 2026-04-25 08:41 | 53.15782 | 7.93532 | 24956 ft | 410 kts | 256° |
| 2026-04-25 08:41 | 53.14926 | 7.88999 | 25213 ft | 411 kts | 256° |
| 2026-04-25 08:42 | 53.14066 | 7.84460 | 25454 ft | 412 kts | 256° |
| 2026-04-25 08:42 | 53.13198 | 7.79902 | 25695 ft | 413 kts | 256° |
| 2026-04-25 08:42 | 53.12322 | 7.75333 | 25956 ft | 415 kts | 256° |
| 2026-04-25 08:42 | 53.11439 | 7.70751 | 26204 ft | 416 kts | 256° |
| 2026-04-25 08:43 | 53.10563 | 7.66213 | 26446 ft | 418 kts | 256° |
| 2026-04-25 08:43 | 53.09663 | 7.61554 | 26676 ft | 419 kts | 256° |
| 2026-04-25 08:43 | 53.08767 | 7.56929 | 26906 ft | 421 kts | 256° |
| 2026-04-25 08:43 | 53.07882 | 7.52351 | 27139 ft | 422 kts | 256° |
| 2026-04-25 08:44 | 53.06979 | 7.47694 | 27369 ft | 423 kts | 256° |
| 2026-04-25 08:44 | 53.06072 | 7.43040 | 27602 ft | 425 kts | 256° |
| 2026-04-25 08:44 | 53.05157 | 7.38363 | 27817 ft | 426 kts | 256° |
| 2026-04-25 08:44 | 53.04239 | 7.33674 | 28056 ft | 427 kts | 256° |
| 2026-04-25 08:45 | 53.03318 | 7.28971 | 28278 ft | 429 kts | 256° |
| 2026-04-25 08:45 | 53.02392 | 7.24253 | 28428 ft | 431 kts | 256° |
| 2026-04-25 08:45 | 53.01457 | 7.19505 | 28557 ft | 434 kts | 256° |
| 2026-04-25 08:45 | 53.00503 | 7.14737 | 28736 ft | 436 kts | 255° |
| 2026-04-25 08:46 | 52.99534 | 7.09971 | 28901 ft | 437 kts | 255° |
| 2026-04-25 08:46 | 52.98555 | 7.05185 | 29083 ft | 438 kts | 255° |
| 2026-04-25 08:46 | 52.97572 | 7.00387 | 29260 ft | 440 kts | 255° |
| 2026-04-25 08:46 | 52.96586 | 6.95581 | 29452 ft | 440 kts | 255° |
| 2026-04-25 08:47 | 52.95599 | 6.90782 | 29698 ft | 439 kts | 255° |
| 2026-04-25 08:47 | 52.94610 | 6.85994 | 29966 ft | 438 kts | 255° |
| 2026-04-25 08:47 | 52.93621 | 6.81217 | 30210 ft | 438 kts | 256° |
| 2026-04-25 08:47 | 52.92637 | 6.76460 | 30428 ft | 437 kts | 256° |
| 2026-04-25 08:48 | 52.91655 | 6.71701 | 30632 ft | 436 kts | 256° |
| 2026-04-25 08:48 | 52.90673 | 6.66952 | 30838 ft | 435 kts | 256° |
| 2026-04-25 08:48 | 52.89691 | 6.62214 | 31042 ft | 434 kts | 256° |
| 2026-04-25 08:48 | 52.88709 | 6.57484 | 31228 ft | 434 kts | 256° |
| 2026-04-25 08:49 | 52.87728 | 6.52766 | 31428 ft | 433 kts | 255° |
| 2026-04-25 08:49 | 52.86742 | 6.48072 | 31630 ft | 432 kts | 255° |
| 2026-04-25 08:49 | 52.85749 | 6.43375 | 31818 ft | 432 kts | 255° |
| 2026-04-25 08:49 | 52.84754 | 6.38692 | 32013 ft | 431 kts | 255° |
| 2026-04-25 08:50 | 52.83761 | 6.34015 | 32145 ft | 431 kts | 255° |
| 2026-04-25 08:50 | 52.81790 | 6.24694 | 32206 ft | 429 kts | 255° |
| 2026-04-25 08:50 | 52.80811 | 6.20056 | 32308 ft | 428 kts | 255° |
| 2026-04-25 08:51 | 52.79831 | 6.15427 | 32574 ft | 426 kts | 255° |
| 2026-04-25 08:51 | 52.78850 | 6.10821 | 32834 ft | 424 kts | 255° |
| 2026-04-25 08:51 | 52.77865 | 6.06242 | 33091 ft | 422 kts | 255° |
| 2026-04-25 08:52 | 52.75891 | 5.97064 | 33215 ft | 426 kts | 255° |
| 2026-04-25 08:52 | 52.73918 | 5.87886 | 33215 ft | 427 kts | 254° |
| 2026-04-25 08:53 | 52.71024 | 5.79238 | 33203 ft | 439 kts | 236° |
| 2026-04-25 08:53 | 52.66996 | 5.71622 | 33217 ft | 441 kts | 233° |
| 2026-04-25 08:54 | 52.62952 | 5.64026 | 33195 ft | 441 kts | 233° |
| 2026-04-25 08:54 | 52.58906 | 5.56442 | 33199 ft | 442 kts | 233° |
| 2026-04-25 08:55 | 52.54843 | 5.48839 | 33199 ft | 443 kts | 233° |
| 2026-04-25 08:55 | 52.50774 | 5.41243 | 33221 ft | 443 kts | 233° |
| 2026-04-25 08:56 | 52.46702 | 5.33677 | 33236 ft | 442 kts | 233° |
| 2026-04-25 08:56 | 52.42629 | 5.26113 | 33241 ft | 442 kts | 233° |
| 2026-04-25 08:57 | 52.38557 | 5.18575 | 33224 ft | 442 kts | 232° |
| 2026-04-25 08:57 | 52.34370 | 5.11196 | 33231 ft | 445 kts | 225° |
| 2026-04-25 08:58 | 52.29104 | 5.05712 | 33233 ft | 454 kts | 210° |
| 2026-04-25 08:58 | 52.23421 | 5.01221 | 33232 ft | 454 kts | 210° |
| 2026-04-25 08:59 | 52.17741 | 4.96698 | 33212 ft | 454 kts | 210° |
| 2026-04-25 08:59 | 52.12062 | 4.92188 | 33222 ft | 454 kts | 210° |
| 2026-04-25 09:00 | 52.06370 | 4.87702 | 33232 ft | 454 kts | 210° |
| 2026-04-25 09:00 | 52.00693 | 4.83233 | 33261 ft | 453 kts | 210° |
| 2026-04-25 09:01 | 51.95026 | 4.78773 | 33265 ft | 452 kts | 210° |
| 2026-04-25 09:01 | 51.89358 | 4.74333 | 33251 ft | 452 kts | 209° |
| 2026-04-25 09:02 | 51.83692 | 4.69920 | 33255 ft | 452 kts | 209° |
| 2026-04-25 09:02 | 51.78023 | 4.65511 | 33245 ft | 452 kts | 209° |
| 2026-04-25 09:03 | 51.72354 | 4.61111 | 33247 ft | 452 kts | 209° |
| 2026-04-25 09:03 | 51.66685 | 4.56717 | 33232 ft | 452 kts | 209° |
| 2026-04-25 09:04 | 51.61022 | 4.52331 | 33231 ft | 452 kts | 209° |
| 2026-04-25 09:04 | 51.56309 | 4.48692 | 33232 ft | 452 kts | 209° |
| 2026-04-25 09:05 | 51.50633 | 4.44341 | 33231 ft | 452 kts | 209° |
| 2026-04-25 09:05 | 51.44944 | 4.39998 | 33216 ft | 453 kts | 209° |
| 2026-04-25 09:06 | 51.39256 | 4.35660 | 33222 ft | 453 kts | 209° |
| 2026-04-25 09:06 | 51.33558 | 4.31322 | 33233 ft | 454 kts | 209° |
| 2026-04-25 09:07 | 51.27852 | 4.26988 | 33264 ft | 454 kts | 209° |
| 2026-04-25 09:07 | 51.22143 | 4.22658 | 33250 ft | 454 kts | 209° |
| 2026-04-25 09:08 | 51.16420 | 4.18385 | 33258 ft | 456 kts | 205° |
| 2026-04-25 09:08 | 51.10423 | 4.15040 | 33252 ft | 457 kts | 202° |
| 2026-04-25 09:09 | 51.04403 | 4.11748 | 33258 ft | 457 kts | 202° |
| 2026-04-25 09:09 | 50.98421 | 4.08490 | 33258 ft | 457 kts | 202° |
| 2026-04-25 09:10 | 50.92402 | 4.05207 | 33258 ft | 457 kts | 202° |
| 2026-04-25 09:10 | 50.86390 | 4.01891 | 33251 ft | 457 kts | 204° |
| 2026-04-25 09:11 | 50.77569 | 3.96259 | 33228 ft | 456 kts | 206° |
| 2026-04-25 09:11 | 50.71714 | 3.92390 | 33231 ft | 456 kts | 206° |
| 2026-04-25 09:12 | 50.65832 | 3.88598 | 33236 ft | 457 kts | 205° |
| 2026-04-25 09:12 | 50.59928 | 3.84868 | 33236 ft | 457 kts | 205° |
| 2026-04-25 09:13 | 50.54041 | 3.81107 | 33229 ft | 456 kts | 206° |
| 2026-04-25 09:13 | 50.48227 | 3.77113 | 33234 ft | 456 kts | 207° |
| 2026-04-25 09:14 | 50.42429 | 3.73074 | 33233 ft | 456 kts | 207° |
| 2026-04-25 09:14 | 50.36621 | 3.69099 | 33225 ft | 456 kts | 207° |
| 2026-04-25 09:15 | 50.30802 | 3.65176 | 33241 ft | 455 kts | 207° |
| 2026-04-25 09:15 | 50.24997 | 3.61270 | 33241 ft | 454 kts | 207° |
| 2026-04-25 09:16 | 50.19199 | 3.57371 | 33240 ft | 453 kts | 207° |
| 2026-04-25 09:16 | 50.13415 | 3.53483 | 33217 ft | 453 kts | 207° |
| 2026-04-25 09:17 | 50.04774 | 3.47709 | 33219 ft | 452 kts | 207° |
| 2026-04-25 09:18 | 49.98991 | 3.43847 | 33223 ft | 452 kts | 207° |
| 2026-04-25 09:18 | 49.93172 | 3.39976 | 33224 ft | 452 kts | 207° |
| 2026-04-25 09:19 | 49.87381 | 3.36137 | 33219 ft | 452 kts | 206° |
| 2026-04-25 09:19 | 49.81599 | 3.32307 | 33221 ft | 452 kts | 206° |
| 2026-04-25 09:20 | 49.75850 | 3.28506 | 33221 ft | 452 kts | 206° |
| 2026-04-25 09:20 | 49.70066 | 3.24709 | 33208 ft | 452 kts | 206° |
| 2026-04-25 09:21 | 49.64278 | 3.20919 | 33212 ft | 451 kts | 206° |
| 2026-04-25 09:21 | 49.58508 | 3.17131 | 33217 ft | 451 kts | 206° |
| 2026-04-25 09:22 | 49.52780 | 3.13217 | 33208 ft | 448 kts | 212° |
| 2026-04-25 09:22 | 49.47934 | 3.07413 | 33209 ft | 439 kts | 231° |
| 2026-04-25 09:23 | 49.44555 | 2.99710 | 33215 ft | 434 kts | 243° |
| 2026-04-25 09:23 | 49.41571 | 2.91650 | 33213 ft | 434 kts | 242° |
| 2026-04-25 09:24 | 49.38563 | 2.83627 | 33208 ft | 434 kts | 242° |
| 2026-04-25 09:24 | 49.35550 | 2.75601 | 33209 ft | 434 kts | 242° |
| 2026-04-25 09:25 | 49.32588 | 2.67541 | 33208 ft | 434 kts | 243° |
| 2026-04-25 09:25 | 49.29751 | 2.59385 | 33216 ft | 433 kts | 243° |
| 2026-04-25 09:26 | 49.26937 | 2.51248 | 33210 ft | 432 kts | 243° |
| 2026-04-25 09:26 | 49.24081 | 2.43147 | 33219 ft | 432 kts | 243° |
| 2026-04-25 09:27 | 49.21202 | 2.35081 | 33211 ft | 432 kts | 242° |
| 2026-04-25 09:27 | 49.18311 | 2.27035 | 33211 ft | 432 kts | 242° |
| 2026-04-25 09:28 | 49.15379 | 2.19098 | 33211 ft | 431 kts | 241° |
| 2026-04-25 09:28 | 49.12760 | 2.12079 | 33217 ft | 431 kts | 241° |
| 2026-04-25 09:29 | 49.12260 | 2.10745 | 33218 ft | 431 kts | 241° |
| 2026-04-25 09:30 | 49.09558 | 2.03479 | 33209 ft | 429 kts | 244° |
| 2026-04-25 09:30 | 49.07497 | 1.96605 | 33211 ft | 429 kts | 246° |
| 2026-04-25 09:32 | 49.05679 | 1.90838 | 33170 ft | 428 kts | 245° |
| 2026-04-25 09:32 | 49.03402 | 1.83280 | 33170 ft | 428 kts | 246° |
| 2026-04-25 09:33 | 49.00979 | 1.74983 | 33182 ft | 429 kts | 246° |
| 2026-04-25 09:33 | 48.98510 | 1.66711 | 33198 ft | 429 kts | 245° |
| 2026-04-25 09:34 | 48.95996 | 1.58479 | 33193 ft | 429 kts | 245° |
| 2026-04-25 09:34 | 48.93490 | 1.50305 | 33196 ft | 429 kts | 245° |
| 2026-04-25 09:35 | 48.90974 | 1.42090 | 33203 ft | 429 kts | 245° |
| 2026-04-25 09:35 | 48.88447 | 1.33870 | 33200 ft | 429 kts | 245° |
| 2026-04-25 09:36 | 48.85912 | 1.25673 | 33205 ft | 429 kts | 244° |
| 2026-04-25 09:36 | 48.83377 | 1.17486 | 33200 ft | 429 kts | 244° |
| 2026-04-25 09:37 | 48.80836 | 1.09295 | 33197 ft | 429 kts | 244° |
| 2026-04-25 09:37 | 48.78292 | 1.01129 | 33189 ft | 428 kts | 244° |
| 2026-04-25 09:38 | 48.75735 | 0.92972 | 33193 ft | 428 kts | 244° |
| 2026-04-25 09:38 | 48.72912 | 0.85041 | 33189 ft | 428 kts | 238° |
| 2026-04-25 09:39 | 48.69810 | 0.77350 | 33192 ft | 428 kts | 238° |
| 2026-04-25 09:39 | 48.66697 | 0.69690 | 33192 ft | 427 kts | 238° |
| 2026-04-25 09:40 | 48.62032 | 0.58202 | 33171 ft | 427 kts | 238° |
| 2026-04-25 09:40 | 48.58906 | 0.50557 | 33172 ft | 427 kts | 238° |
| 2026-04-25 09:41 | 48.55775 | 0.42929 | 33179 ft | 427 kts | 238° |
| 2026-04-25 09:41 | 48.52643 | 0.35310 | 33174 ft | 427 kts | 238° |
| 2026-04-25 09:42 | 48.49507 | 0.27691 | 33176 ft | 427 kts | 238° |
| 2026-04-25 09:42 | 48.46366 | 0.20087 | 33176 ft | 427 kts | 238° |
| 2026-04-25 09:43 | 48.43244 | 0.12546 | 33167 ft | 427 kts | 238° |
| 2026-04-25 09:43 | 48.40097 | 0.04962 | 33177 ft | 427 kts | 237° |
| 2026-04-25 09:44 | 48.36936 | -0.02613 | 33190 ft | 427 kts | 237° |
| 2026-04-25 09:44 | 48.33609 | -0.10000 | 33183 ft | 426 kts | 233° |
| 2026-04-25 09:45 | 48.30027 | -0.17083 | 33189 ft | 426 kts | 232° |
| 2026-04-25 09:45 | 48.26411 | -0.24123 | 33175 ft | 425 kts | 232° |
| 2026-04-25 09:46 | 48.22828 | -0.31176 | 33186 ft | 425 kts | 232° |
| 2026-04-25 09:46 | 48.19232 | -0.38226 | 33177 ft | 426 kts | 232° |
| 2026-04-25 09:47 | 48.15625 | -0.45262 | 33178 ft | 426 kts | 232° |
| 2026-04-25 09:47 | 48.12023 | -0.52286 | 33184 ft | 425 kts | 232° |
| 2026-04-25 09:48 | 48.08415 | -0.59305 | 33180 ft | 425 kts | 232° |
| 2026-04-25 09:48 | 48.04798 | -0.66312 | 33177 ft | 425 kts | 232° |
| 2026-04-25 09:49 | 48.01186 | -0.73307 | 33179 ft | 425 kts | 232° |
| 2026-04-25 09:49 | 47.97562 | -0.80294 | 33175 ft | 425 kts | 232° |
| 2026-04-25 09:50 | 47.93934 | -0.87269 | 33191 ft | 425 kts | 232° |
| 2026-04-25 09:50 | 47.90320 | -0.94216 | 33180 ft | 423 kts | 232° |
| 2026-04-25 09:51 | 47.86709 | -1.01137 | 33174 ft | 422 kts | 232° |
| 2026-04-25 09:51 | 47.83098 | -1.08018 | 33175 ft | 422 kts | 232° |
| 2026-04-25 09:52 | 47.79510 | -1.14848 | 33163 ft | 421 kts | 232° |
| 2026-04-25 09:52 | 47.75899 | -1.21704 | 33157 ft | 421 kts | 232° |
| 2026-04-25 09:53 | 47.72867 | -1.27444 | 33170 ft | 421 kts | 231° |
| 2026-04-25 09:53 | 47.69251 | -1.34283 | 33172 ft | 420 kts | 231° |
| 2026-04-25 09:54 | 47.65652 | -1.41076 | 33175 ft | 418 kts | 231° |
| 2026-04-25 09:54 | 47.62051 | -1.47851 | 33170 ft | 418 kts | 231° |
| 2026-04-25 09:55 | 47.58406 | -1.54541 | 33164 ft | 417 kts | 229° |
| 2026-04-25 09:55 | 47.54563 | -1.60898 | 33157 ft | 417 kts | 227° |
| 2026-04-25 09:56 | 47.50619 | -1.67214 | 33174 ft | 417 kts | 227° |
| 2026-04-25 09:56 | 47.47376 | -1.72445 | 33169 ft | 416 kts | 227° |
| 2026-04-25 09:57 | 47.43502 | -1.78794 | 33163 ft | 415 kts | 228° |
| 2026-04-25 09:57 | 47.39651 | -1.85127 | 33160 ft | 414 kts | 228° |
| 2026-04-25 09:58 | 47.35757 | -1.91389 | 33159 ft | 414 kts | 223° |
| 2026-04-25 09:58 | 47.31081 | -1.96293 | 33167 ft | 414 kts | 212° |
| 2026-04-25 09:59 | 47.26157 | -2.00686 | 33175 ft | 414 kts | 212° |
| 2026-04-25 09:59 | 47.21235 | -2.05103 | 33169 ft | 414 kts | 212° |
| 2026-04-25 10:00 | 47.16309 | -2.09511 | 33157 ft | 415 kts | 212° |
| 2026-04-25 10:00 | 47.11360 | -2.13909 | 33161 ft | 416 kts | 212° |
| 2026-04-25 10:01 | 47.06402 | -2.18301 | 33148 ft | 416 kts | 212° |
| 2026-04-25 10:01 | 47.02250 | -2.21981 | 33144 ft | 417 kts | 212° |
| 2026-04-25 10:02 | 46.96484 | -2.27086 | 33151 ft | 417 kts | 212° |
| 2026-04-25 10:02 | 46.91515 | -2.31466 | 33149 ft | 417 kts | 212° |
| 2026-04-25 10:03 | 46.86549 | -2.35836 | 33155 ft | 416 kts | 212° |
| 2026-04-25 10:04 | 46.71780 | -2.48776 | 33123 ft | 419 kts | 212° |
| 2026-04-25 10:05 | 46.66758 | -2.53165 | 33119 ft | 422 kts | 212° |
| 2026-04-25 10:05 | 46.61711 | -2.57566 | 33125 ft | 423 kts | 212° |
| 2026-04-25 10:06 | 46.56650 | -2.61964 | 33130 ft | 424 kts | 212° |
| 2026-04-25 10:06 | 46.51584 | -2.66359 | 33139 ft | 424 kts | 212° |
| 2026-04-25 10:07 | 46.46524 | -2.70748 | 33159 ft | 423 kts | 212° |
| 2026-04-25 10:07 | 46.41470 | -2.75109 | 33166 ft | 422 kts | 211° |
| 2026-04-25 10:08 | 46.36426 | -2.79454 | 33162 ft | 422 kts | 211° |
| 2026-04-25 10:08 | 46.31347 | -2.83815 | 33151 ft | 429 kts | 212° |
| 2026-04-25 10:09 | 46.26171 | -2.88255 | 33134 ft | 434 kts | 212° |
| 2026-04-25 10:09 | 46.20984 | -2.92754 | 33150 ft | 435 kts | 212° |
| 2026-04-25 10:10 | 46.15814 | -2.97273 | 33136 ft | 435 kts | 212° |
| 2026-04-25 10:10 | 46.10640 | -3.01777 | 33156 ft | 433 kts | 212° |
| 2026-04-25 10:11 | 46.06361 | -3.05493 | 33161 ft | 432 kts | 212° |
| 2026-04-25 10:11 | 45.99743 | -3.11202 | 33159 ft | 432 kts | 212° |
| 2026-04-25 10:12 | 45.94592 | -3.15641 | 33163 ft | 431 kts | 212° |
| 2026-04-25 10:13 | 45.86855 | -3.22299 | 33114 ft | 437 kts | 213° |
| 2026-04-25 10:13 | 45.82053 | -3.26434 | 33118 ft | 439 kts | 213° |
| 2026-04-25 10:15 | 45.66390 | -3.39791 | 33156 ft | 441 kts | 212° |
| 2026-04-25 10:15 | 45.61114 | -3.44284 | 33170 ft | 441 kts | 212° |
| 2026-04-25 10:16 | 45.55843 | -3.48748 | 33177 ft | 441 kts | 212° |
| 2026-04-25 10:16 | 45.50568 | -3.53215 | 33149 ft | 442 kts | 212° |
| 2026-04-25 10:17 | 45.45264 | -3.57697 | 33148 ft | 444 kts | 212° |
| 2026-04-25 10:17 | 45.39938 | -3.62195 | 33140 ft | 446 kts | 212° |
| 2026-04-25 10:18 | 45.34599 | -3.66685 | 33148 ft | 447 kts | 212° |
| 2026-04-25 10:18 | 45.29244 | -3.71177 | 33160 ft | 447 kts | 212° |
| 2026-04-25 10:19 | 45.28377 | -3.71904 | 33163 ft | 447 kts | 212° |
| 2026-04-25 10:20 | 45.07630 | -3.89192 | 33181 ft | 447 kts | 212° |
| 2026-04-25 10:21 | 45.02268 | -3.93647 | 33183 ft | 447 kts | 212° |
| 2026-04-25 10:21 | 44.96907 | -3.98094 | 33182 ft | 447 kts | 212° |
| 2026-04-25 10:22 | 44.91537 | -4.02529 | 33194 ft | 447 kts | 212° |